Terminal Aerodrome Forecast
Issued by NWS

Home | Current Version | Previous Version | Graphics & Text | Print | Product List | Glossary On
Versions: 1 2 3 4 5 6 7 8 9 10 11 12 13 14 15
554
FTUS43 KMPX 210257 AAA
TAFRWF
TAF AMD
KRWF 210257Z 2103/2124 29011KT P6SM SKC
     FM210800 24005KT 4SM BR FEW010
      TEMPO 2109/2113 2SM BR BKN010
     FM211400 19009KT P6SM SCT250
     FM212000 22012KT P6SM SCT250=

USA.gov is the U.S. government's official web portal to all federal, state and local government web resources and services.